Bay Port, New York
Current Conditions -  °F | °C
As of 12:56 AM on Sunday 23 Nov 2014 (Local Time) from KISP Reporting Station
Broken Clouds Broken Clouds  
Wind Chill: 37°   Ceiling: 9500
Heat Index: 44°   Visibility: 10mi
Dew Point: 25°   Wind: 14mph
Humidity: 47%   Direction: 230°SW
Pressure: 30.18"   Gusts: NA
Location:  40.746°N, 73.0539°W
Report Text: KISP 230556Z AUTO 23012KT 10SM BKN095 BKN120 07/M04 A3018 RMK AO2 SLP219 T00671039 10067 20056 58008
Loading
Personal Weather Stations






























Interactive Weather Map New forecast layout! Learn more

10-Day Weather Forecast

Advertisements
Track Severe Weather on mobile